sensor_id;sensor_type;location;lat;lon;timestamp;P1;durP1;ratioP1;P2;durP2;ratioP2
70067;SDS011;57425;51.616;6.680;2023-08-30T00:00:05;5.32;;;3.53;;
70067;SDS011;57425;51.616;6.680;2023-08-30T00:02:31;8.07;;;4.43;;
70067;SDS011;57425;51.616;6.680;2023-08-30T00:04:59;8.57;;;3.63;;
70067;SDS011;57425;51.616;6.680;2023-08-30T00:07:26;9.10;;;4.00;;
70067;SDS011;57425;51.616;6.680;2023-08-30T00:09:51;7.65;;;3.70;;
70067;SDS011;57425;51.616;6.680;2023-08-30T00:12:17;4.95;;;3.38;;
70067;SDS011;57425;51.616;6.680;2023-08-30T00:14:43;7.43;;;3.67;;
70067;SDS011;57425;51.616;6.680;2023-08-30T00:17:08;6.57;;;3.72;;
70067;SDS011;57425;51.616;6.680;2023-08-30T00:19:34;6.55;;;3.38;;
70067;SDS011;57425;51.616;6.680;2023-08-30T00:22:00;5.40;;;2.97;;
70067;SDS011;57425;51.616;6.680;2023-08-30T00:24:25;6.18;;;3.35;;
70067;SDS011;57425;51.616;6.680;2023-08-30T00:26:51;8.63;;;3.33;;
70067;SDS011;57425;51.616;6.680;2023-08-30T00:29:17;6.03;;;3.85;;
70067;SDS011;57425;51.616;6.680;2023-08-30T00:31:42;8.18;;;3.28;;
70067;SDS011;57425;51.616;6.680;2023-08-30T00:34:08;6.53;;;2.88;;
70067;SDS011;57425;51.616;6.680;2023-08-30T00:36:34;7.80;;;4.20;;
70067;SDS011;57425;51.616;6.680;2023-08-30T00:38:59;5.95;;;3.80;;
70067;SDS011;57425;51.616;6.680;2023-08-30T00:41:25;4.07;;;3.22;;
70067;SDS011;57425;51.616;6.680;2023-08-30T00:43:50;6.97;;;4.20;;
70067;SDS011;57425;51.616;6.680;2023-08-30T00:46:16;5.78;;;3.95;;
70067;SDS011;57425;51.616;6.680;2023-08-30T00:48:43;8.10;;;3.90;;
70067;SDS011;57425;51.616;6.680;2023-08-30T00:51:09;5.65;;;3.28;;
70067;SDS011;57425;51.616;6.680;2023-08-30T00:53:35;6.40;;;2.80;;
70067;SDS011;57425;51.616;6.680;2023-08-30T00:56:01;5.93;;;3.30;;
70067;SDS011;57425;51.616;6.680;2023-08-30T00:58:27;6.88;;;3.78;;
70067;SDS011;57425;51.616;6.680;2023-08-30T01:00:53;4.75;;;3.45;;
70067;SDS011;57425;51.616;6.680;2023-08-30T01:03:20;5.43;;;3.45;;
70067;SDS011;57425;51.616;6.680;2023-08-30T01:05:47;7.53;;;3.40;;
70067;SDS011;57425;51.616;6.680;2023-08-30T01:08:13;4.00;;;2.70;;
70067;SDS011;57425;51.616;6.680;2023-08-30T01:18:59;7.00;;;3.00;;
70067;SDS011;57425;51.616;6.680;2023-08-30T01:24:23;6.38;;;3.30;;
70067;SDS011;57425;51.616;6.680;2023-08-30T01:27:12;4.95;;;2.97;;
70067;SDS011;57425;51.616;6.680;2023-08-30T01:29:42;4.45;;;3.05;;
70067;SDS011;57425;51.616;6.680;2023-08-30T01:32:09;7.60;;;3.20;;
70067;SDS011;57425;51.616;6.680;2023-08-30T01:34:36;9.50;;;3.33;;
70067;SDS011;57425;51.616;6.680;2023-08-30T01:37:04;5.00;;;2.97;;
70067;SDS011;57425;51.616;6.680;2023-08-30T01:39:32;5.93;;;2.97;;
70067;SDS011;57425;51.616;6.680;2023-08-30T01:41:58;5.60;;;3.10;;
70067;SDS011;57425;51.616;6.680;2023-08-30T01:44:28;4.40;;;2.90;;
70067;SDS011;57425;51.616;6.680;2023-08-30T01:47:00;6.18;;;3.30;;
70067;SDS011;57425;51.616;6.680;2023-08-30T01:49:29;4.35;;;3.13;;
70067;SDS011;57425;51.616;6.680;2023-08-30T01:51:59;5.47;;;3.47;;
70067;SDS011;57425;51.616;6.680;2023-08-30T01:54:26;6.40;;;3.38;;
70067;SDS011;57425;51.616;6.680;2023-08-30T01:56:54;6.50;;;3.97;;
70067;SDS011;57425;51.616;6.680;2023-08-30T01:59:20;8.10;;;3.00;;
70067;SDS011;57425;51.616;6.680;2023-08-30T02:01:45;5.53;;;3.70;;
70067;SDS011;57425;51.616;6.680;2023-08-30T02:04:11;3.65;;;2.78;;
70067;SDS011;57425;51.616;6.680;2023-08-30T02:06:45;8.85;;;3.72;;
70067;SDS011;57425;51.616;6.680;2023-08-30T02:09:21;5.10;;;3.20;;
70067;SDS011;57425;51.616;6.680;2023-08-30T02:11:52;6.63;;;3.58;;
70067;SDS011;57425;51.616;6.680;2023-08-30T02:14:20;5.38;;;3.55;;
70067;SDS011;57425;51.616;6.680;2023-08-30T02:16:48;12.30;;;3.53;;
70067;SDS011;57425;51.616;6.680;2023-08-30T02:19:14;5.45;;;3.22;;
70067;SDS011;57425;51.616;6.680;2023-08-30T02:21:42;6.60;;;3.15;;
70067;SDS011;57425;51.616;6.680;2023-08-30T02:24:08;5.30;;;3.17;;
70067;SDS011;57425;51.616;6.680;2023-08-30T02:26:34;4.88;;;3.55;;
70067;SDS011;57425;51.616;6.680;2023-08-30T02:29:00;5.07;;;3.33;;
70067;SDS011;57425;51.616;6.680;2023-08-30T02:31:25;4.85;;;3.30;;
70067;SDS011;57425;51.616;6.680;2023-08-30T02:33:51;5.28;;;3.35;;
70067;SDS011;57425;51.616;6.680;2023-08-30T02:36:16;7.40;;;3.88;;
70067;SDS011;57425;51.616;6.680;2023-08-30T02:38:42;7.25;;;3.92;;
70067;SDS011;57425;51.616;6.680;2023-08-30T02:41:08;9.70;;;4.00;;
70067;SDS011;57425;51.616;6.680;2023-08-30T02:43:35;6.65;;;3.83;;
70067;SDS011;57425;51.616;6.680;2023-08-30T02:46:01;8.55;;;4.30;;
70067;SDS011;57425;51.616;6.680;2023-08-30T02:48:28;8.48;;;4.45;;
70067;SDS011;57425;51.616;6.680;2023-08-30T02:50:54;6.28;;;4.07;;
70067;SDS011;57425;51.616;6.680;2023-08-30T02:53:20;7.68;;;4.43;;
70067;SDS011;57425;51.616;6.680;2023-08-30T02:55:46;7.32;;;3.83;;
70067;SDS011;57425;51.616;6.680;2023-08-30T02:58:13;8.20;;;4.15;;
70067;SDS011;57425;51.616;6.680;2023-08-30T03:00:38;8.65;;;4.18;;
70067;SDS011;57425;51.616;6.680;2023-08-30T03:03:04;6.88;;;4.10;;
70067;SDS011;57425;51.616;6.680;2023-08-30T03:05:30;9.10;;;3.97;;
70067;SDS011;57425;51.616;6.680;2023-08-30T03:07:55;6.00;;;3.92;;
70067;SDS011;57425;51.616;6.680;2023-08-30T03:10:21;6.63;;;4.32;;
70067;SDS011;57425;51.616;6.680;2023-08-30T03:12:46;8.85;;;4.40;;
70067;SDS011;57425;51.616;6.680;2023-08-30T03:15:12;11.95;;;4.53;;
70067;SDS011;57425;51.616;6.680;2023-08-30T03:17:37;11.57;;;4.85;;
70067;SDS011;57425;51.616;6.680;2023-08-30T03:20:03;10.02;;;4.60;;
70067;SDS011;57425;51.616;6.680;2023-08-30T03:22:30;9.98;;;4.50;;
70067;SDS011;57425;51.616;6.680;2023-08-30T03:24:57;7.93;;;4.55;;
70067;SDS011;57425;51.616;6.680;2023-08-30T03:27:23;7.05;;;4.70;;
70067;SDS011;57425;51.616;6.680;2023-08-30T03:29:48;6.50;;;4.50;;
70067;SDS011;57425;51.616;6.680;2023-08-30T03:32:15;7.65;;;4.15;;
70067;SDS011;57425;51.616;6.680;2023-08-30T03:34:45;7.63;;;4.13;;
70067;SDS011;57425;51.616;6.680;2023-08-30T03:37:11;10.95;;;5.45;;
70067;SDS011;57425;51.616;6.680;2023-08-30T03:39:41;7.28;;;4.68;;
70067;SDS011;57425;51.616;6.680;2023-08-30T03:42:07;8.00;;;5.35;;
70067;SDS011;57425;51.616;6.680;2023-08-30T03:44:34;8.73;;;4.93;;
70067;SDS011;57425;51.616;6.680;2023-08-30T03:46:59;15.18;;;6.35;;
70067;SDS011;57425;51.616;6.680;2023-08-30T03:49:25;6.82;;;4.50;;
70067;SDS011;57425;51.616;6.680;2023-08-30T03:51:51;6.78;;;4.60;;
70067;SDS011;57425;51.616;6.680;2023-08-30T03:54:16;7.75;;;4.90;;
70067;SDS011;57425;51.616;6.680;2023-08-30T03:56:42;8.35;;;4.80;;
70067;SDS011;57425;51.616;6.680;2023-08-30T03:59:09;10.45;;;5.05;;
70067;SDS011;57425;51.616;6.680;2023-08-30T04:01:34;8.60;;;5.13;;
70067;SDS011;57425;51.616;6.680;2023-08-30T04:04:00;9.35;;;5.25;;
70067;SDS011;57425;51.616;6.680;2023-08-30T04:06:26;9.13;;;5.45;;
70067;SDS011;57425;51.616;6.680;2023-08-30T04:08:51;8.25;;;4.93;;
70067;SDS011;57425;51.616;6.680;2023-08-30T04:11:17;14.23;;;5.32;;
70067;SDS011;57425;51.616;6.680;2023-08-30T04:13:43;8.13;;;4.85;;
70067;SDS011;57425;51.616;6.680;2023-08-30T04:16:10;11.27;;;5.43;;
70067;SDS011;57425;51.616;6.680;2023-08-30T04:18:36;8.38;;;5.18;;
70067;SDS011;57425;51.616;6.680;2023-08-30T04:21:02;11.65;;;6.40;;
70067;SDS011;57425;51.616;6.680;2023-08-30T04:23:29;11.35;;;5.65;;
70067;SDS011;57425;51.616;6.680;2023-08-30T04:25:55;13.30;;;6.40;;
70067;SDS011;57425;51.616;6.680;2023-08-30T04:28:21;11.48;;;6.35;;
70067;SDS011;57425;51.616;6.680;2023-08-30T04:30:46;17.90;;;5.88;;
70067;SDS011;57425;51.616;6.680;2023-08-30T04:33:12;8.45;;;5.32;;
70067;SDS011;57425;51.616;6.680;2023-08-30T04:35:38;10.43;;;5.53;;
70067;SDS011;57425;51.616;6.680;2023-08-30T04:38:04;9.95;;;5.85;;
70067;SDS011;57425;51.616;6.680;2023-08-30T04:40:30;10.55;;;5.47;;
70067;SDS011;57425;51.616;6.680;2023-08-30T04:42:57;9.45;;;5.60;;
70067;SDS011;57425;51.616;6.680;2023-08-30T04:45:23;10.05;;;5.88;;
70067;SDS011;57425;51.616;6.680;2023-08-30T04:47:50;11.73;;;5.65;;
70067;SDS011;57425;51.616;6.680;2023-08-30T04:50:16;10.20;;;6.13;;
70067;SDS011;57425;51.616;6.680;2023-08-30T04:52:42;14.95;;;6.30;;
70067;SDS011;57425;51.616;6.680;2023-08-30T04:55:08;7.85;;;5.15;;
70067;SDS011;57425;51.616;6.680;2023-08-30T04:57:34;10.88;;;6.43;;
70067;SDS011;57425;51.616;6.680;2023-08-30T05:00:00;10.75;;;5.75;;
70067;SDS011;57425;51.616;6.680;2023-08-30T05:02:29;9.35;;;5.65;;
70067;SDS011;57425;51.616;6.680;2023-08-30T05:04:55;16.13;;;6.20;;
70067;SDS011;57425;51.616;6.680;2023-08-30T05:07:20;11.45;;;6.88;;
70067;SDS011;57425;51.616;6.680;2023-08-30T05:09:46;13.95;;;7.00;;
70067;SDS011;57425;51.616;6.680;2023-08-30T05:12:12;14.43;;;6.63;;
70067;SDS011;57425;51.616;6.680;2023-08-30T05:14:37;9.93;;;6.60;;
70067;SDS011;57425;51.616;6.680;2023-08-30T05:17:03;13.25;;;7.10;;
70067;SDS011;57425;51.616;6.680;2023-08-30T05:19:29;13.40;;;6.53;;
70067;SDS011;57425;51.616;6.680;2023-08-30T05:21:54;10.93;;;6.28;;
70067;SDS011;57425;51.616;6.680;2023-08-30T05:24:23;11.60;;;6.03;;
70067;SDS011;57425;51.616;6.680;2023-08-30T05:26:48;9.82;;;6.15;;
70067;SDS011;57425;51.616;6.680;2023-08-30T05:29:14;14.60;;;6.82;;
70067;SDS011;57425;51.616;6.680;2023-08-30T05:31:40;12.65;;;5.70;;
70067;SDS011;57425;51.616;6.680;2023-08-30T05:34:06;14.93;;;6.68;;
70067;SDS011;57425;51.616;6.680;2023-08-30T05:36:33;15.85;;;6.60;;
70067;SDS011;57425;51.616;6.680;2023-08-30T05:38:58;12.05;;;6.38;;
70067;SDS011;57425;51.616;6.680;2023-08-30T05:41:24;16.60;;;6.63;;
70067;SDS011;57425;51.616;6.680;2023-08-30T05:43:51;17.00;;;6.13;;
70067;SDS011;57425;51.616;6.680;2023-08-30T05:46:17;14.35;;;7.40;;
70067;SDS011;57425;51.616;6.680;2023-08-30T05:48:42;11.90;;;6.38;;
70067;SDS011;57425;51.616;6.680;2023-08-30T05:51:08;16.50;;;6.30;;
70067;SDS011;57425;51.616;6.680;2023-08-30T05:53:34;17.48;;;6.88;;
70067;SDS011;57425;51.616;6.680;2023-08-30T05:55:59;36.50;;;7.72;;
70067;SDS011;57425;51.616;6.680;2023-08-30T05:58:25;13.18;;;6.63;;
70067;SDS011;57425;51.616;6.680;2023-08-30T06:00:50;17.67;;;8.10;;
70067;SDS011;57425;51.616;6.680;2023-08-30T06:03:16;15.77;;;7.38;;
70067;SDS011;57425;51.616;6.680;2023-08-30T06:05:42;21.17;;;7.15;;
70067;SDS011;57425;51.616;6.680;2023-08-30T06:08:08;12.18;;;6.80;;
70067;SDS011;57425;51.616;6.680;2023-08-30T06:10:34;16.38;;;7.05;;
70067;SDS011;57425;51.616;6.680;2023-08-30T06:13:01;16.42;;;7.15;;
70067;SDS011;57425;51.616;6.680;2023-08-30T06:15:27;17.52;;;7.78;;
70067;SDS011;57425;51.616;6.680;2023-08-30T06:17:53;19.63;;;7.93;;
70067;SDS011;57425;51.616;6.680;2023-08-30T06:20:19;17.10;;;8.27;;
70067;SDS011;57425;51.616;6.680;2023-08-30T06:22:44;14.00;;;7.88;;
70067;SDS011;57425;51.616;6.680;2023-08-30T06:25:10;15.80;;;6.50;;
70067;SDS011;57425;51.616;6.680;2023-08-30T06:27:42;14.18;;;7.68;;
70067;SDS011;57425;51.616;6.680;2023-08-30T06:30:20;19.85;;;7.50;;
70067;SDS011;57425;51.616;6.680;2023-08-30T06:32:46;19.80;;;8.20;;
70067;SDS011;57425;51.616;6.680;2023-08-30T06:35:11;12.02;;;7.05;;
70067;SDS011;57425;51.616;6.680;2023-08-30T06:37:37;13.38;;;7.13;;
70067;SDS011;57425;51.616;6.680;2023-08-30T06:40:03;14.13;;;7.43;;
70067;SDS011;57425;51.616;6.680;2023-08-30T06:42:29;14.30;;;6.75;;
70067;SDS011;57425;51.616;6.680;2023-08-30T06:44:54;17.73;;;7.85;;
70067;SDS011;57425;51.616;6.680;2023-08-30T06:47:20;13.13;;;6.45;;
70067;SDS011;57425;51.616;6.680;2023-08-30T06:49:45;16.45;;;7.80;;
70067;SDS011;57425;51.616;6.680;2023-08-30T06:52:11;10.52;;;5.88;;
70067;SDS011;57425;51.616;6.680;2023-08-30T06:54:37;17.40;;;7.70;;
70067;SDS011;57425;51.616;6.680;2023-08-30T06:57:02;12.15;;;7.10;;
70067;SDS011;57425;51.616;6.680;2023-08-30T06:59:29;19.58;;;7.40;;
70067;SDS011;57425;51.616;6.680;2023-08-30T07:01:55;18.38;;;7.82;;
70067;SDS011;57425;51.616;6.680;2023-08-30T07:04:20;16.08;;;7.10;;
70067;SDS011;57425;51.616;6.680;2023-08-30T07:06:46;12.57;;;6.95;;
70067;SDS011;57425;51.616;6.680;2023-08-30T07:09:12;18.42;;;7.90;;
70067;SDS011;57425;51.616;6.680;2023-08-30T07:11:37;14.25;;;7.22;;
70067;SDS011;57425;51.616;6.680;2023-08-30T07:14:03;12.68;;;7.13;;
70067;SDS011;57425;51.616;6.680;2023-08-30T07:16:29;24.95;;;6.68;;
70067;SDS011;57425;51.616;6.680;2023-08-30T07:18:58;11.57;;;6.85;;
70067;SDS011;57425;51.616;6.680;2023-08-30T07:21:25;12.35;;;6.70;;
70067;SDS011;57425;51.616;6.680;2023-08-30T07:23:50;12.73;;;7.28;;
70067;SDS011;57425;51.616;6.680;2023-08-30T07:26:16;10.40;;;5.88;;
70067;SDS011;57425;51.616;6.680;2023-08-30T07:28:42;14.23;;;7.00;;
70067;SDS011;57425;51.616;6.680;2023-08-30T07:31:07;9.93;;;6.22;;
70067;SDS011;57425;51.616;6.680;2023-08-30T07:33:33;11.35;;;6.18;;
70067;SDS011;57425;51.616;6.680;2023-08-30T07:36:00;10.20;;;6.00;;
70067;SDS011;57425;51.616;6.680;2023-08-30T07:38:26;9.38;;;5.72;;
70067;SDS011;57425;51.616;6.680;2023-08-30T07:40:51;8.55;;;5.65;;
70067;SDS011;57425;51.616;6.680;2023-08-30T07:43:17;14.57;;;5.55;;
70067;SDS011;57425;51.616;6.680;2023-08-30T07:45:43;9.93;;;6.30;;
70067;SDS011;57425;51.616;6.680;2023-08-30T07:48:09;14.77;;;6.05;;
70067;SDS011;57425;51.616;6.680;2023-08-30T07:50:35;9.02;;;5.63;;
70067;SDS011;57425;51.616;6.680;2023-08-30T07:53:00;8.90;;;5.40;;
70067;SDS011;57425;51.616;6.680;2023-08-30T07:55:26;15.23;;;5.38;;
70067;SDS011;57425;51.616;6.680;2023-08-30T07:57:51;8.05;;;5.20;;
70067;SDS011;57425;51.616;6.680;2023-08-30T08:00:17;9.00;;;3.92;;
70067;SDS011;57425;51.616;6.680;2023-08-30T08:02:43;9.80;;;5.82;;
70067;SDS011;57425;51.616;6.680;2023-08-30T08:05:08;10.25;;;5.15;;
70067;SDS011;57425;51.616;6.680;2023-08-30T08:07:35;9.10;;;4.82;;
70067;SDS011;57425;51.616;6.680;2023-08-30T08:10:05;13.55;;;5.15;;
70067;SDS011;57425;51.616;6.680;2023-08-30T08:12:32;9.77;;;5.10;;
70067;SDS011;57425;51.616;6.680;2023-08-30T08:14:58;10.02;;;4.75;;
70067;SDS011;57425;51.616;6.680;2023-08-30T08:17:24;11.32;;;4.35;;
70067;SDS011;57425;51.616;6.680;2023-08-30T08:19:50;7.57;;;4.60;;
70067;SDS011;57425;51.616;6.680;2023-08-30T08:22:15;6.10;;;4.10;;
70067;SDS011;57425;51.616;6.680;2023-08-30T08:24:41;8.15;;;3.47;;
70067;SDS011;57425;51.616;6.680;2023-08-30T08:27:08;7.25;;;3.95;;
70067;SDS011;57425;51.616;6.680;2023-08-30T08:29:34;4.88;;;3.33;;
70067;SDS011;57425;51.616;6.680;2023-08-30T08:32:01;6.10;;;3.90;;
70067;SDS011;57425;51.616;6.680;2023-08-30T08:34:27;6.45;;;3.83;;
70067;SDS011;57425;51.616;6.680;2023-08-30T08:36:53;8.43;;;3.53;;
70067;SDS011;57425;51.616;6.680;2023-08-30T08:39:18;8.60;;;3.88;;
70067;SDS011;57425;51.616;6.680;2023-08-30T08:41:44;7.65;;;3.58;;
70067;SDS011;57425;51.616;6.680;2023-08-30T08:44:11;8.98;;;3.90;;
70067;SDS011;57425;51.616;6.680;2023-08-30T08:46:39;10.93;;;4.20;;
70067;SDS011;57425;51.616;6.680;2023-08-30T08:49:09;6.35;;;3.30;;
70067;SDS011;57425;51.616;6.680;2023-08-30T08:51:39;10.95;;;3.80;;
70067;SDS011;57425;51.616;6.680;2023-08-30T08:54:05;10.73;;;3.75;;
70067;SDS011;57425;51.616;6.680;2023-08-30T08:56:32;12.60;;;4.13;;
70067;SDS011;57425;51.616;6.680;2023-08-30T08:58:59;9.02;;;3.65;;
70067;SDS011;57425;51.616;6.680;2023-08-30T09:01:25;6.22;;;3.60;;
70067;SDS011;57425;51.616;6.680;2023-08-30T09:03:51;4.55;;;3.10;;
70067;SDS011;57425;51.616;6.680;2023-08-30T09:06:17;6.47;;;3.10;;
70067;SDS011;57425;51.616;6.680;2023-08-30T09:08:43;5.53;;;2.40;;
70067;SDS011;57425;51.616;6.680;2023-08-30T09:11:09;4.40;;;2.60;;
70067;SDS011;57425;51.616;6.680;2023-08-30T09:13:35;7.00;;;2.85;;
70067;SDS011;57425;51.616;6.680;2023-08-30T09:16:01;5.78;;;2.88;;
70067;SDS011;57425;51.616;6.680;2023-08-30T09:18:30;6.72;;;2.85;;
70067;SDS011;57425;51.616;6.680;2023-08-30T09:21:08;4.53;;;2.80;;
70067;SDS011;57425;51.616;6.680;2023-08-30T09:23:35;5.47;;;3.03;;
70067;SDS011;57425;51.616;6.680;2023-08-30T09:26:01;4.18;;;2.40;;
70067;SDS011;57425;51.616;6.680;2023-08-30T09:28:30;5.03;;;2.80;;
70067;SDS011;57425;51.616;6.680;2023-08-30T09:30:57;6.00;;;3.28;;
70067;SDS011;57425;51.616;6.680;2023-08-30T09:33:31;7.57;;;3.28;;
70067;SDS011;57425;51.616;6.680;2023-08-30T09:35:58;7.15;;;3.03;;
70067;SDS011;57425;51.616;6.680;2023-08-30T09:38:25;8.27;;;3.63;;
70067;SDS011;57425;51.616;6.680;2023-08-30T09:40:51;5.07;;;3.25;;
70067;SDS011;57425;51.616;6.680;2023-08-30T09:43:18;5.57;;;3.03;;
70067;SDS011;57425;51.616;6.680;2023-08-30T09:45:47;12.63;;;3.40;;
70067;SDS011;57425;51.616;6.680;2023-08-30T09:48:13;7.07;;;3.92;;
70067;SDS011;57425;51.616;6.680;2023-08-30T09:50:39;7.07;;;3.83;;
70067;SDS011;57425;51.616;6.680;2023-08-30T09:53:09;5.07;;;3.10;;
70067;SDS011;57425;51.616;6.680;2023-08-30T09:55:35;12.32;;;3.90;;
70067;SDS011;57425;51.616;6.680;2023-08-30T09:58:01;5.28;;;3.47;;
70067;SDS011;57425;51.616;6.680;2023-08-30T10:00:29;5.93;;;2.47;;
70067;SDS011;57425;51.616;6.680;2023-08-30T10:02:55;10.70;;;2.97;;
70067;SDS011;57425;51.616;6.680;2023-08-30T10:05:23;4.22;;;3.03;;
70067;SDS011;57425;51.616;6.680;2023-08-30T10:07:50;4.80;;;2.92;;
70067;SDS011;57425;51.616;6.680;2023-08-30T10:10:18;7.00;;;3.58;;
70067;SDS011;57425;51.616;6.680;2023-08-30T10:12:45;4.35;;;2.35;;
70067;SDS011;57425;51.616;6.680;2023-08-30T10:15:12;5.90;;;3.25;;
70067;SDS011;57425;51.616;6.680;2023-08-30T10:17:38;4.40;;;2.97;;
70067;SDS011;57425;51.616;6.680;2023-08-30T10:20:09;3.10;;;2.55;;
70067;SDS011;57425;51.616;6.680;2023-08-30T10:22:37;6.15;;;2.40;;
70067;SDS011;57425;51.616;6.680;2023-08-30T10:28:00;7.47;;;2.72;;
70067;SDS011;57425;51.616;6.680;2023-08-30T10:30:26;6.45;;;3.22;;
70067;SDS011;57425;51.616;6.680;2023-08-30T10:32:52;6.78;;;3.20;;
70067;SDS011;57425;51.616;6.680;2023-08-30T10:35:18;6.45;;;3.13;;
70067;SDS011;57425;51.616;6.680;2023-08-30T10:37:56;4.47;;;2.95;;
70067;SDS011;57425;51.616;6.680;2023-08-30T10:40:26;5.18;;;2.90;;
70067;SDS011;57425;51.616;6.680;2023-08-30T10:43:27;5.18;;;2.95;;
70067;SDS011;57425;51.616;6.680;2023-08-30T10:46:00;6.22;;;3.58;;
70067;SDS011;57425;51.616;6.680;2023-08-30T10:48:34;5.28;;;3.40;;
70067;SDS011;57425;51.616;6.680;2023-08-30T10:51:00;6.85;;;3.30;;
70067;SDS011;57425;51.616;6.680;2023-08-30T10:53:29;7.47;;;3.08;;
70067;SDS011;57425;51.616;6.680;2023-08-30T10:56:11;5.43;;;3.30;;
70067;SDS011;57425;51.616;6.680;2023-08-30T10:58:43;6.65;;;3.38;;
70067;SDS011;57425;51.616;6.680;2023-08-30T11:01:09;5.53;;;2.90;;
70067;SDS011;57425;51.616;6.680;2023-08-30T11:03:38;2.95;;;2.25;;
70067;SDS011;57425;51.616;6.680;2023-08-30T11:06:04;5.05;;;2.75;;
70067;SDS011;57425;51.616;6.680;2023-08-30T11:08:29;4.57;;;2.58;;
70067;SDS011;57425;51.616;6.680;2023-08-30T11:11:05;6.07;;;2.20;;
70067;SDS011;57425;51.616;6.680;2023-08-30T11:13:32;4.05;;;2.15;;
70067;SDS011;57425;51.616;6.680;2023-08-30T11:16:00;5.43;;;2.00;;
70067;SDS011;57425;51.616;6.680;2023-08-30T11:18:29;8.15;;;1.98;;
70067;SDS011;57425;51.616;6.680;2023-08-30T11:21:04;3.42;;;2.03;;
70067;SDS011;57425;51.616;6.680;2023-08-30T11:23:31;2.58;;;1.80;;
70067;SDS011;57425;51.616;6.680;2023-08-30T11:25:56;4.00;;;2.00;;
70067;SDS011;57425;51.616;6.680;2023-08-30T11:28:25;3.95;;;2.03;;
70067;SDS011;57425;51.616;6.680;2023-08-30T11:30:54;3.00;;;1.98;;
70067;SDS011;57425;51.616;6.680;2023-08-30T11:33:22;4.57;;;1.75;;
70067;SDS011;57425;51.616;6.680;2023-08-30T11:35:49;8.07;;;1.88;;
70067;SDS011;57425;51.616;6.680;2023-08-30T11:38:16;2.95;;;1.70;;
70067;SDS011;57425;51.616;6.680;2023-08-30T11:40:43;1.95;;;1.45;;
70067;SDS011;57425;51.616;6.680;2023-08-30T11:43:09;1.95;;;1.33;;
70067;SDS011;57425;51.616;6.680;2023-08-30T11:45:35;5.53;;;1.88;;
70067;SDS011;57425;51.616;6.680;2023-08-30T11:48:01;4.45;;;2.00;;
70067;SDS011;57425;51.616;6.680;2023-08-30T11:50:27;3.15;;;2.00;;
70067;SDS011;57425;51.616;6.680;2023-08-30T11:52:54;3.25;;;1.90;;
70067;SDS011;57425;51.616;6.680;2023-08-30T11:55:20;3.63;;;1.92;;
70067;SDS011;57425;51.616;6.680;2023-08-30T11:57:49;2.25;;;1.55;;
70067;SDS011;57425;51.616;6.680;2023-08-30T12:00:18;3.60;;;1.48;;
70067;SDS011;57425;51.616;6.680;2023-08-30T12:02:45;4.65;;;1.85;;
70067;SDS011;57425;51.616;6.680;2023-08-30T12:05:12;3.78;;;1.83;;
70067;SDS011;57425;51.616;6.680;2023-08-30T12:07:40;4.38;;;2.55;;
70067;SDS011;57425;51.616;6.680;2023-08-30T12:10:06;2.90;;;1.63;;
70067;SDS011;57425;51.616;6.680;2023-08-30T12:12:33;4.18;;;1.90;;
70067;SDS011;57425;51.616;6.680;2023-08-30T12:15:01;2.85;;;1.70;;
70067;SDS011;57425;51.616;6.680;2023-08-30T12:17:37;3.28;;;1.98;;
70067;SDS011;57425;51.616;6.680;2023-08-30T12:20:03;3.60;;;1.85;;
70067;SDS011;57425;51.616;6.680;2023-08-30T12:22:38;7.22;;;1.98;;
70067;SDS011;57425;51.616;6.680;2023-08-30T12:25:14;7.82;;;2.00;;
70067;SDS011;57425;51.616;6.680;2023-08-30T12:27:44;3.50;;;1.95;;
70067;SDS011;57425;51.616;6.680;2023-08-30T12:30:10;3.35;;;1.92;;
70067;SDS011;57425;51.616;6.680;2023-08-30T12:32:37;3.33;;;2.22;;
70067;SDS011;57425;51.616;6.680;2023-08-30T12:35:03;4.28;;;2.08;;
70067;SDS011;57425;51.616;6.680;2023-08-30T12:37:29;3.97;;;2.30;;
70067;SDS011;57425;51.616;6.680;2023-08-30T12:39:54;3.75;;;1.80;;
70067;SDS011;57425;51.616;6.680;2023-08-30T12:42:20;4.85;;;2.30;;
70067;SDS011;57425;51.616;6.680;2023-08-30T12:44:45;2.50;;;1.65;;
70067;SDS011;57425;51.616;6.680;2023-08-30T12:47:11;3.30;;;2.10;;
70067;SDS011;57425;51.616;6.680;2023-08-30T12:49:39;4.07;;;2.05;;
70067;SDS011;57425;51.616;6.680;2023-08-30T12:52:05;4.30;;;2.25;;
70067;SDS011;57425;51.616;6.680;2023-08-30T12:54:31;5.22;;;2.20;;
70067;SDS011;57425;51.616;6.680;2023-08-30T12:56:57;4.65;;;2.58;;
70067;SDS011;57425;51.616;6.680;2023-08-30T12:59:24;5.68;;;2.45;;
70067;SDS011;57425;51.616;6.680;2023-08-30T13:01:50;2.88;;;2.00;;
70067;SDS011;57425;51.616;6.680;2023-08-30T13:04:15;3.95;;;2.35;;
70067;SDS011;57425;51.616;6.680;2023-08-30T13:06:41;4.07;;;1.88;;
70067;SDS011;57425;51.616;6.680;2023-08-30T13:09:07;4.68;;;2.35;;
70067;SDS011;57425;51.616;6.680;2023-08-30T13:11:32;3.92;;;2.25;;
70067;SDS011;57425;51.616;6.680;2023-08-30T13:13:58;3.95;;;2.30;;
70067;SDS011;57425;51.616;6.680;2023-08-30T13:16:24;2.40;;;2.20;;
70067;SDS011;57425;51.616;6.680;2023-08-30T13:18:50;3.95;;;2.20;;
70067;SDS011;57425;51.616;6.680;2023-08-30T13:21:16;3.10;;;2.05;;
70067;SDS011;57425;51.616;6.680;2023-08-30T13:23:42;2.55;;;1.92;;
70067;SDS011;57425;51.616;6.680;2023-08-30T13:26:08;2.47;;;1.85;;
70067;SDS011;57425;51.616;6.680;2023-08-30T13:28:34;3.78;;;1.88;;
70067;SDS011;57425;51.616;6.680;2023-08-30T13:31:00;2.95;;;1.77;;
70067;SDS011;57425;51.616;6.680;2023-08-30T13:33:25;3.35;;;2.03;;
70067;SDS011;57425;51.616;6.680;2023-08-30T13:35:52;7.25;;;2.45;;
70067;SDS011;57425;51.616;6.680;2023-08-30T13:38:18;7.00;;;2.92;;
70067;SDS011;57425;51.616;6.680;2023-08-30T13:40:44;5.38;;;2.80;;
70067;SDS011;57425;51.616;6.680;2023-08-30T13:43:10;3.22;;;2.30;;
70067;SDS011;57425;51.616;6.680;2023-08-30T13:45:36;4.55;;;2.55;;
70067;SDS011;57425;51.616;6.680;2023-08-30T13:48:02;4.93;;;3.28;;
70067;SDS011;57425;51.616;6.680;2023-08-30T13:50:28;5.53;;;2.25;;
70067;SDS011;57425;51.616;6.680;2023-08-30T13:52:57;4.38;;;2.83;;
70067;SDS011;57425;51.616;6.680;2023-08-30T13:55:23;2.60;;;2.10;;
70067;SDS011;57425;51.616;6.680;2023-08-30T13:57:49;5.75;;;2.63;;
70067;SDS011;57425;51.616;6.680;2023-08-30T14:00:16;3.30;;;2.28;;
70067;SDS011;57425;51.616;6.680;2023-08-30T14:02:42;2.97;;;2.20;;
70067;SDS011;57425;51.616;6.680;2023-08-30T14:05:08;3.70;;;2.13;;
70067;SDS011;57425;51.616;6.680;2023-08-30T14:07:34;4.05;;;2.20;;
70067;SDS011;57425;51.616;6.680;2023-08-30T14:09:59;4.15;;;2.78;;
70067;SDS011;57425;51.616;6.680;2023-08-30T14:12:25;4.18;;;2.35;;
70067;SDS011;57425;51.616;6.680;2023-08-30T14:14:51;2.42;;;1.85;;
70067;SDS011;57425;51.616;6.680;2023-08-30T14:17:18;3.25;;;1.90;;
70067;SDS011;57425;51.616;6.680;2023-08-30T14:19:44;4.18;;;2.60;;
70067;SDS011;57425;51.616;6.680;2023-08-30T14:22:10;3.92;;;2.53;;
70067;SDS011;57425;51.616;6.680;2023-08-30T14:24:36;5.45;;;2.35;;
70067;SDS011;57425;51.616;6.680;2023-08-30T14:27:01;3.65;;;2.55;;
70067;SDS011;57425;51.616;6.680;2023-08-30T14:29:28;4.68;;;2.33;;
70067;SDS011;57425;51.616;6.680;2023-08-30T14:31:54;3.15;;;1.90;;
70067;SDS011;57425;51.616;6.680;2023-08-30T14:34:20;3.13;;;2.47;;
70067;SDS011;57425;51.616;6.680;2023-08-30T14:36:45;7.13;;;2.40;;
70067;SDS011;57425;51.616;6.680;2023-08-30T14:39:13;4.18;;;2.63;;
70067;SDS011;57425;51.616;6.680;2023-08-30T14:41:39;4.97;;;2.25;;
70067;SDS011;57425;51.616;6.680;2023-08-30T14:44:04;4.82;;;2.28;;
70067;SDS011;57425;51.616;6.680;2023-08-30T14:46:30;3.25;;;2.10;;
70067;SDS011;57425;51.616;6.680;2023-08-30T14:48:56;3.60;;;2.45;;
70067;SDS011;57425;51.616;6.680;2023-08-30T14:51:21;5.70;;;1.92;;
70067;SDS011;57425;51.616;6.680;2023-08-30T14:53:47;4.72;;;2.63;;